createdAt,value
2023-01-07T00:01:28.227Z,13.69
2023-01-07T00:03:56.533Z,13.70
2023-01-07T00:06:27.337Z,13.68
2023-01-07T00:08:55.517Z,13.68
2023-01-07T00:11:24.951Z,13.67
2023-01-07T00:13:53.264Z,13.67
2023-01-07T00:16:21.660Z,13.66
2023-01-07T00:18:48.877Z,13.65
2023-01-07T00:21:17.077Z,13.63
2023-01-07T00:23:44.774Z,13.65
2023-01-07T00:26:17.327Z,13.62
2023-01-07T00:28:45.559Z,13.63
2023-01-07T00:31:18.190Z,13.62
2023-01-07T00:34:07.400Z,13.63
2023-01-07T00:36:37.458Z,13.61
2023-01-07T00:39:15.069Z,13.62
2023-01-07T00:42:02.043Z,13.60
2023-01-07T00:44:29.588Z,13.59
2023-01-07T00:46:56.348Z,13.59
2023-01-07T00:49:24.564Z,13.59
2023-01-07T00:51:52.078Z,13.58
2023-01-07T00:54:20.292Z,13.58
2023-01-07T00:56:47.021Z,13.57
2023-01-07T00:59:13.952Z,13.56
2023-01-07T01:01:42.656Z,13.56
2023-01-07T01:04:09.549Z,13.55
2023-01-07T01:06:36.453Z,13.54
2023-01-07T01:09:03.220Z,13.55
2023-01-07T01:11:29.923Z,13.54
2023-01-07T01:13:56.669Z,13.53
2023-01-07T01:16:23.427Z,13.52
2023-01-07T01:18:50.414Z,13.52
2023-01-07T01:21:17.348Z,13.51
2023-01-07T01:23:44.246Z,13.51
2023-01-07T01:26:14.085Z,13.50
2023-01-07T01:28:41.149Z,13.51
2023-01-07T01:31:09.355Z,13.50
2023-01-07T01:33:48.316Z,13.49
2023-01-07T01:36:15.146Z,13.48
2023-01-07T01:38:43.006Z,13.48
2023-01-07T01:41:10.139Z,13.47
2023-01-07T01:43:42.309Z,13.46
2023-01-07T01:46:13.635Z,13.47
2023-01-07T01:48:46.260Z,13.45
2023-01-07T01:51:13.721Z,13.44
2023-01-07T01:53:40.529Z,13.45
2023-01-07T01:56:36.006Z,13.43
2023-01-07T01:59:07.022Z,13.43
2023-01-07T02:01:36.874Z,13.42
2023-01-07T02:04:12.266Z,13.42
2023-01-07T02:06:44.252Z,13.41
2023-01-07T02:09:12.743Z,13.41
2023-01-07T02:11:44.181Z,13.41
2023-01-07T02:14:24.927Z,13.38
2023-01-07T02:16:57.891Z,13.39
2023-01-07T02:19:44.879Z,13.38
2023-01-07T02:22:41.404Z,13.37
2023-01-07T02:25:43.220Z,13.36
2023-01-07T02:28:25.166Z,13.34
2023-01-07T02:31:29.112Z,13.33
2023-01-07T02:34:13.427Z,13.32
2023-01-07T02:36:43.105Z,13.32
2023-01-07T02:39:23.375Z,13.31
2023-01-07T02:41:58.360Z,13.31
2023-01-07T02:44:54.161Z,13.31
2023-01-07T02:47:38.927Z,13.31
2023-01-07T02:50:07.499Z,13.29
2023-01-07T02:52:36.321Z,13.29
2023-01-07T02:55:07.508Z,13.29
2023-01-07T02:57:52.927Z,13.28
2023-01-07T03:00:46.118Z,13.28
2023-01-07T03:03:22.338Z,13.28
2023-01-07T03:06:02.037Z,13.26
2023-01-07T03:08:58.799Z,13.27
2023-01-07T03:11:31.044Z,13.26
2023-01-07T03:14:10.655Z,13.25
2023-01-07T03:16:40.490Z,13.24
2023-01-07T03:19:35.757Z,13.24
2023-01-07T03:22:14.008Z,13.24
2023-01-07T03:24:43.373Z,13.23
2023-01-07T03:27:10.165Z,13.22
2023-01-07T03:29:37.022Z,13.23
2023-01-07T03:32:11.465Z,13.23
2023-01-07T03:34:39.033Z,13.23
2023-01-07T03:37:14.920Z,13.21
2023-01-07T03:39:44.425Z,13.22
2023-01-07T03:42:31.093Z,13.22
2023-01-07T03:44:59.345Z,13.21
2023-01-07T03:47:29.308Z,13.21
2023-01-07T03:49:56.126Z,13.21
2023-01-07T03:52:23.260Z,13.21
2023-01-07T03:54:50.362Z,13.21
2023-01-07T03:57:17.609Z,13.20
2023-01-07T03:59:44.473Z,13.19
2023-01-07T04:02:11.437Z,13.18
2023-01-07T04:04:38.628Z,13.18
2023-01-07T04:07:05.908Z,13.20
2023-01-07T04:09:32.685Z,13.19
2023-01-07T04:11:59.410Z,13.19
2023-01-07T04:14:26.403Z,13.17
2023-01-07T04:16:53.219Z,13.18
2023-01-07T04:19:20.103Z,13.17
2023-01-07T04:21:46.847Z,13.16
2023-01-07T04:24:14.230Z,13.16
2023-01-07T04:26:42.193Z,13.16
2023-01-07T04:29:09.020Z,13.15
2023-01-07T04:31:35.726Z,13.16
2023-01-07T04:34:02.516Z,13.15
2023-01-07T04:36:29.389Z,13.15
2023-01-07T04:38:56.595Z,13.14
2023-01-07T04:41:23.422Z,13.14
2023-01-07T04:43:50.629Z,13.14
2023-01-07T04:46:17.425Z,13.14
2023-01-07T04:48:44.368Z,13.13
2023-01-07T04:51:11.349Z,13.13
2023-01-07T04:53:38.877Z,13.13
2023-01-07T04:56:06.448Z,13.13
2023-01-07T04:58:33.912Z,13.10
2023-01-07T05:01:03.775Z,13.12
2023-01-07T05:03:34.639Z,13.11
2023-01-07T05:06:01.709Z,13.11
2023-01-07T05:08:29.139Z,13.11
2023-01-07T05:10:56.550Z,13.10
2023-01-07T05:13:31.945Z,13.11
2023-01-07T05:16:00.543Z,13.11
2023-01-07T05:18:27.349Z,13.10
2023-01-07T05:20:54.433Z,13.09
2023-01-07T05:23:21.301Z,13.11
2023-01-07T05:25:49.628Z,13.10
2023-01-07T05:28:17.602Z,13.11
2023-01-07T05:30:47.179Z,13.09
2023-01-07T05:33:14.108Z,13.10
2023-01-07T05:35:41.671Z,13.11
2023-01-07T05:38:08.476Z,13.10
2023-01-07T05:40:35.225Z,13.11
2023-01-07T05:43:02.295Z,13.12
2023-01-07T05:45:29.338Z,13.11
2023-01-07T05:47:56.175Z,13.11
2023-01-07T05:50:22.845Z,13.10
2023-01-07T05:52:51.275Z,13.11
2023-01-07T05:55:18.233Z,13.10
2023-01-07T05:57:45.000Z,13.11
2023-01-07T06:00:12.334Z,13.11
2023-01-07T06:02:39.366Z,13.12
2023-01-07T06:05:06.526Z,13.13
2023-01-07T06:07:33.331Z,13.11
2023-01-07T06:10:01.860Z,13.11
2023-01-07T06:12:30.060Z,13.13
2023-01-07T06:14:56.796Z,13.12
2023-01-07T06:17:23.759Z,13.11
2023-01-07T06:19:50.573Z,13.13
2023-01-07T06:22:17.398Z,13.12
2023-01-07T06:24:44.079Z,13.11
2023-01-07T06:27:11.220Z,13.11
2023-01-07T06:29:38.037Z,13.13
2023-01-07T06:32:05.238Z,13.13
2023-01-07T06:34:32.080Z,13.11
2023-01-07T06:36:58.852Z,13.06
2023-01-07T06:39:27.172Z,12.93
2023-01-07T06:41:54.147Z,12.76
2023-01-07T06:44:20.946Z,12.61
2023-01-07T06:46:47.778Z,12.49
2023-01-07T06:49:15.311Z,12.37
2023-01-07T06:51:42.069Z,12.27
2023-01-07T06:54:08.799Z,12.19
2023-01-07T06:56:35.597Z,12.11
2023-01-07T06:59:02.275Z,11.96
2023-01-07T07:01:29.536Z,11.84
2023-01-07T07:03:56.339Z,11.77
2023-01-07T07:06:23.180Z,11.75
2023-01-07T07:08:49.936Z,11.75
2023-01-07T07:11:16.809Z,11.77
2023-01-07T07:13:43.562Z,11.73
2023-01-07T07:16:10.383Z,11.74
2023-01-07T07:18:37.138Z,11.74
2023-01-07T07:21:04.015Z,11.75
2023-01-07T07:23:30.667Z,11.70
2023-01-07T07:25:57.431Z,11.68
2023-01-07T07:28:24.119Z,11.67
2023-01-07T07:30:51.961Z,11.68
2023-01-07T07:33:19.663Z,11.69
2023-01-07T07:35:47.035Z,11.67
2023-01-07T07:38:13.863Z,11.65
2023-01-07T07:40:40.886Z,11.67
2023-01-07T07:43:11.820Z,11.68
2023-01-07T07:45:41.105Z,11.66
2023-01-07T07:48:09.286Z,11.69
2023-01-07T07:50:36.396Z,11.66
2023-01-07T07:53:03.311Z,11.68
2023-01-07T07:55:30.117Z,11.67
2023-01-07T07:57:58.422Z,11.68
2023-01-07T08:00:25.642Z,11.70
2023-01-07T08:02:52.674Z,11.70
2023-01-07T08:05:19.552Z,11.61
2023-01-07T08:07:46.297Z,11.63
2023-01-07T08:10:13.013Z,11.62
2023-01-07T08:12:39.936Z,11.59
2023-01-07T08:15:08.270Z,11.62
2023-01-07T08:17:36.319Z,11.59
2023-01-07T08:20:07.521Z,11.55
2023-01-07T08:22:35.087Z,11.60
2023-01-07T08:25:01.981Z,11.60
2023-01-07T08:27:29.440Z,11.67
2023-01-07T08:29:56.604Z,11.61
2023-01-07T08:32:23.565Z,11.62
2023-01-07T08:34:50.819Z,11.65
2023-01-07T08:37:17.932Z,11.71
2023-01-07T08:39:44.700Z,11.69
2023-01-07T08:42:11.516Z,11.73
2023-01-07T08:44:38.227Z,11.79
2023-01-07T08:47:05.130Z,11.87
2023-01-07T08:49:32.181Z,11.88
2023-01-07T08:51:58.925Z,11.91
2023-01-07T08:54:25.687Z,11.97
2023-01-07T08:56:52.461Z,12.00
2023-01-07T08:59:19.140Z,11.97
2023-01-07T09:01:46.031Z,12.02
2023-01-07T09:04:12.834Z,12.05
2023-01-07T09:06:39.689Z,12.14
2023-01-07T09:09:06.485Z,12.18
2023-01-07T09:11:33.330Z,12.27
2023-01-07T09:14:00.098Z,12.37
2023-01-07T09:16:26.893Z,12.37
2023-01-07T09:18:53.715Z,12.34
2023-01-07T09:21:24.356Z,12.39
2023-01-07T09:24:01.477Z,12.34
2023-01-07T09:26:28.267Z,12.40
2023-01-07T09:28:54.954Z,12.43
2023-01-07T09:31:22.610Z,12.52
2023-01-07T09:33:50.879Z,12.61
2023-01-07T09:36:17.726Z,12.65
2023-01-07T09:38:44.741Z,12.72
2023-01-07T09:41:24.310Z,12.76
2023-01-07T09:44:00.972Z,12.83
2023-01-07T09:46:29.529Z,12.90
2023-01-07T09:49:01.127Z,13.03
2023-01-07T09:51:34.088Z,13.11
2023-01-07T09:54:03.677Z,13.13
2023-01-07T09:56:32.857Z,13.21
2023-01-07T09:59:06.150Z,13.30
2023-01-07T10:02:19.401Z,13.43
2023-01-07T10:05:05.719Z,13.53
2023-01-07T10:07:41.134Z,13.58
2023-01-07T10:10:23.012Z,13.54
2023-01-07T10:13:11.499Z,13.47
2023-01-07T10:16:01.760Z,13.48
2023-01-07T10:18:53.936Z,13.55
2023-01-07T10:21:49.538Z,13.68
2023-01-07T10:24:27.657Z,13.72
2023-01-07T10:27:01.205Z,13.72
2023-01-07T10:29:40.113Z,13.58
2023-01-07T10:32:30.258Z,13.48
2023-01-07T10:34:57.770Z,13.48
2023-01-07T10:37:29.348Z,13.47
2023-01-07T10:40:17.500Z,13.50
2023-01-07T10:43:12.133Z,13.39
2023-01-07T10:46:00.330Z,13.23
2023-01-07T10:48:42.351Z,13.23
2023-01-07T10:51:27.182Z,13.27
2023-01-07T10:53:59.529Z,13.24
2023-01-07T10:56:37.411Z,13.06
2023-01-07T10:59:04.892Z,13.18
2023-01-07T11:01:35.074Z,13.31
2023-01-07T11:04:02.164Z,13.39
2023-01-07T11:06:53.943Z,13.38
2023-01-07T11:09:25.831Z,13.45
2023-01-07T11:11:53.641Z,13.37
2023-01-07T11:14:23.245Z,13.35
2023-01-07T11:16:55.677Z,13.42
2023-01-07T11:19:23.814Z,13.61
2023-01-07T11:21:52.204Z,13.67
2023-01-07T11:24:19.048Z,13.67
2023-01-07T11:26:46.389Z,13.78
2023-01-07T11:29:16.150Z,13.91
2023-01-07T11:31:49.523Z,13.97
2023-01-07T11:34:22.557Z,14.07
2023-01-07T11:36:49.702Z,14.10
2023-01-07T11:39:25.538Z,14.03
2023-01-07T11:41:53.662Z,14.08
2023-01-07T11:44:20.615Z,14.10
2023-01-07T11:46:50.806Z,14.09
2023-01-07T11:49:34.436Z,14.14
2023-01-07T11:52:03.265Z,14.23
2023-01-07T11:54:35.294Z,14.29
2023-01-07T11:57:32.545Z,14.24
2023-01-07T12:00:17.997Z,14.19
2023-01-07T12:03:14.553Z,14.11
2023-01-07T12:05:45.209Z,14.10
2023-01-07T12:08:21.487Z,14.10
2023-01-07T12:10:54.972Z,14.01
2023-01-07T12:13:26.124Z,14.02
2023-01-07T12:16:26.957Z,14.03
2023-01-07T12:19:10.092Z,13.94
2023-01-07T12:21:57.256Z,13.97
2023-01-07T12:24:47.346Z,13.97
2023-01-07T12:27:22.803Z,13.98
2023-01-07T12:29:55.678Z,14.01
2023-01-07T12:32:50.378Z,14.10
2023-01-07T12:35:27.351Z,14.12
2023-01-07T12:38:09.482Z,14.13
2023-01-07T12:40:40.279Z,14.17
2023-01-07T12:43:28.405Z,14.20
2023-01-07T12:46:01.056Z,14.23
2023-01-07T12:48:42.681Z,14.28
2023-01-07T12:51:18.829Z,14.27
2023-01-07T12:53:53.442Z,14.17
2023-01-07T12:56:24.252Z,14.03
2023-01-07T12:58:56.109Z,13.97
2023-01-07T13:01:30.793Z,13.97
2023-01-07T13:04:33.203Z,13.98
2023-01-07T13:07:05.717Z,14.06
2023-01-07T13:10:00.021Z,14.01
2023-01-07T13:12:46.230Z,14.03
2023-01-07T13:15:36.481Z,14.14
2023-01-07T13:18:13.359Z,14.10
2023-01-07T13:20:52.273Z,14.09
2023-01-07T13:23:24.452Z,14.12
2023-01-07T13:26:01.553Z,14.14
2023-01-07T13:28:53.080Z,14.20
2023-01-07T13:31:42.702Z,14.22
2023-01-07T13:34:13.854Z,14.15
2023-01-07T13:37:12.376Z,14.13
2023-01-07T13:40:11.921Z,14.08
2023-01-07T13:42:45.415Z,14.07
2023-01-07T13:45:17.859Z,14.15
2023-01-07T13:47:53.457Z,14.23
2023-01-07T13:50:24.331Z,14.25
2023-01-07T13:53:02.975Z,14.27
2023-01-07T13:55:32.478Z,14.30
2023-01-07T13:57:59.265Z,14.20
2023-01-07T14:00:42.110Z,14.19
2023-01-07T14:03:26.886Z,14.15
2023-01-07T14:06:18.783Z,14.06
2023-01-07T14:09:11.190Z,14.01
2023-01-07T14:11:42.193Z,14.07
2023-01-07T14:14:38.252Z,14.08
2023-01-07T14:17:22.954Z,14.02
2023-01-07T14:20:03.771Z,13.99
2023-01-07T14:22:48.905Z,13.98
2023-01-07T14:25:34.605Z,13.97
2023-01-07T14:28:40.432Z,13.86
2023-01-07T14:31:20.193Z,13.84
2023-01-07T14:33:50.419Z,13.72
2023-01-07T14:36:17.321Z,13.61
2023-01-07T14:38:58.157Z,13.57
2023-01-07T14:41:25.418Z,13.49
2023-01-07T14:44:28.075Z,13.44
2023-01-07T14:46:54.955Z,13.46
2023-01-07T14:49:46.938Z,13.35
2023-01-07T14:52:32.712Z,13.18
2023-01-07T14:55:19.927Z,13.05
2023-01-07T14:58:06.443Z,13.03
2023-01-07T15:00:48.357Z,12.94
2023-01-07T15:03:29.799Z,12.87
2023-01-07T15:06:20.283Z,12.71
2023-01-07T15:09:41.325Z,12.69
2023-01-07T15:12:44.124Z,12.62
2023-01-07T15:15:41.619Z,12.39
2023-01-07T15:18:09.834Z,12.27
2023-01-07T15:20:48.585Z,12.12
2023-01-07T15:23:47.275Z,12.02
2023-01-07T15:26:19.900Z,11.86
2023-01-07T15:29:05.582Z,11.74
2023-01-07T15:31:39.128Z,11.70
2023-01-07T15:34:05.889Z,11.63
2023-01-07T15:36:33.171Z,11.62
2023-01-07T15:39:01.949Z,11.62
2023-01-07T15:41:30.075Z,11.53
2023-01-07T15:43:58.066Z,11.45
2023-01-07T15:46:25.686Z,11.41
2023-01-07T15:49:04.851Z,11.33
2023-01-07T15:51:32.517Z,11.34
2023-01-07T15:54:00.469Z,11.32
2023-01-07T15:56:27.924Z,11.31
2023-01-07T15:58:54.748Z,11.28
2023-01-07T16:01:24.991Z,11.19
2023-01-07T16:03:54.948Z,11.07
2023-01-07T16:06:30.795Z,11.04
2023-01-07T16:08:58.666Z,10.93
2023-01-07T16:11:28.013Z,10.84
2023-01-07T16:14:04.780Z,10.80
2023-01-07T16:16:32.626Z,10.77
2023-01-07T16:19:01.141Z,10.77
2023-01-07T16:21:40.944Z,10.73
2023-01-07T16:24:08.085Z,10.64
2023-01-07T16:26:41.261Z,10.61
2023-01-07T16:29:38.325Z,10.58
2023-01-07T16:32:07.100Z,10.61
2023-01-07T16:34:33.995Z,10.73
2023-01-07T16:37:03.220Z,10.88
2023-01-07T16:39:40.373Z,11.02
2023-01-07T16:42:20.589Z,11.15
2023-01-07T16:44:51.141Z,11.29
2023-01-07T16:47:22.466Z,11.47
2023-01-07T16:49:51.431Z,11.50
2023-01-07T16:52:19.688Z,11.57
2023-01-07T16:54:47.613Z,11.64
2023-01-07T16:57:14.537Z,11.71
2023-01-07T16:59:49.755Z,11.76
2023-01-07T17:02:29.966Z,11.83
2023-01-07T17:05:20.271Z,11.90
2023-01-07T17:07:58.811Z,11.95
2023-01-07T17:10:29.652Z,11.98
2023-01-07T17:13:15.686Z,12.00
2023-01-07T17:15:43.422Z,12.05
2023-01-07T17:18:13.518Z,12.08
2023-01-07T17:21:00.183Z,12.10
2023-01-07T17:23:27.131Z,12.14
2023-01-07T17:26:09.138Z,12.15
2023-01-07T17:28:43.421Z,12.16
2023-01-07T17:31:10.404Z,12.20
2023-01-07T17:33:37.374Z,12.22
2023-01-07T17:36:04.301Z,12.23
2023-01-07T17:38:31.084Z,12.24
2023-01-07T17:40:57.996Z,12.27
2023-01-07T17:43:34.895Z,12.27
2023-01-07T17:46:06.155Z,12.28
2023-01-07T17:48:33.775Z,12.30
2023-01-07T17:51:01.427Z,12.31
2023-01-07T17:53:31.601Z,12.31
2023-01-07T17:56:00.977Z,12.32
2023-01-07T17:58:33.397Z,12.32
2023-01-07T18:01:01.792Z,12.35
2023-01-07T18:03:29.196Z,12.36
2023-01-07T18:05:56.014Z,12.36
2023-01-07T18:08:22.901Z,12.37
2023-01-07T18:11:10.230Z,12.38
2023-01-07T18:13:37.333Z,12.39
2023-01-07T18:16:04.407Z,12.39
2023-01-07T18:18:31.283Z,12.41
2023-01-07T18:20:58.553Z,12.41
2023-01-07T18:23:25.580Z,12.42
2023-01-07T18:25:52.318Z,12.42
2023-01-07T18:28:19.140Z,12.44
2023-01-07T18:30:45.892Z,12.45
2023-01-07T18:33:12.876Z,12.46
2023-01-07T18:35:43.016Z,12.46
2023-01-07T18:38:14.339Z,12.47
2023-01-07T18:40:42.085Z,12.48
2023-01-07T18:43:17.169Z,12.48
2023-01-07T18:45:47.590Z,12.50
2023-01-07T18:48:16.107Z,12.52
2023-01-07T18:50:47.354Z,12.54
2023-01-07T18:53:24.725Z,12.56
2023-01-07T18:56:01.255Z,12.59
2023-01-07T18:58:28.260Z,12.62
2023-01-07T19:00:55.037Z,12.62
2023-01-07T19:03:21.884Z,12.65
2023-01-07T19:05:48.578Z,12.69
2023-01-07T19:08:15.296Z,12.69
2023-01-07T19:10:42.532Z,12.70
2023-01-07T19:13:10.211Z,12.73
2023-01-07T19:15:38.682Z,12.75
2023-01-07T19:18:05.731Z,12.75
2023-01-07T19:20:33.474Z,12.77
2023-01-07T19:23:01.334Z,12.79
2023-01-07T19:25:29.551Z,12.81
2023-01-07T19:27:57.193Z,12.82
2023-01-07T19:30:24.306Z,12.85
2023-01-07T19:32:53.141Z,12.87
2023-01-07T19:35:20.255Z,12.89
2023-01-07T19:37:47.191Z,12.91
2023-01-07T19:40:14.006Z,12.94
2023-01-07T19:42:40.816Z,12.95
2023-01-07T19:45:08.142Z,12.97
2023-01-07T19:47:35.447Z,12.98
2023-01-07T19:50:02.378Z,13.00
2023-01-07T19:52:29.330Z,13.03
2023-01-07T19:54:56.173Z,13.04
2023-01-07T19:57:23.104Z,13.07
2023-01-07T19:59:49.802Z,13.10
2023-01-07T20:02:17.812Z,13.11
2023-01-07T20:04:44.661Z,13.14
2023-01-07T20:07:11.486Z,13.16
2023-01-07T20:09:38.288Z,13.18
2023-01-07T20:12:05.419Z,13.21
2023-01-07T20:14:32.075Z,13.22
2023-01-07T20:16:58.928Z,13.23
2023-01-07T20:19:27.215Z,13.26
2023-01-07T20:21:54.045Z,13.27
2023-01-07T20:24:20.715Z,13.28
2023-01-07T20:26:47.835Z,13.30
2023-01-07T20:29:14.565Z,13.33
2023-01-07T20:31:41.535Z,13.34
2023-01-07T20:34:08.310Z,13.38
2023-01-07T20:36:35.082Z,13.40
2023-01-07T20:39:05.759Z,13.42
2023-01-07T20:41:33.875Z,13.45
2023-01-07T20:44:02.490Z,13.47
2023-01-07T20:46:30.432Z,13.48
2023-01-07T20:48:57.434Z,13.49
2023-01-07T20:51:24.275Z,13.50
2023-01-07T20:53:51.024Z,13.53
2023-01-07T20:56:19.923Z,13.55
2023-01-07T20:58:47.437Z,13.57
2023-01-07T21:01:17.118Z,13.59
2023-01-07T21:03:44.496Z,13.62
2023-01-07T21:06:13.195Z,13.64
2023-01-07T21:08:40.253Z,13.67
2023-01-07T21:11:15.486Z,13.65
2023-01-07T21:13:42.716Z,13.68
2023-01-07T21:16:10.138Z,13.68
2023-01-07T21:18:37.187Z,13.71
2023-01-07T21:21:10.335Z,13.71
2023-01-07T21:23:37.214Z,13.72
2023-01-07T21:26:04.265Z,13.74
2023-01-07T21:28:32.388Z,13.76
2023-01-07T21:31:09.347Z,13.78
2023-01-07T21:33:45.744Z,13.79
2023-01-07T21:36:17.127Z,13.81
2023-01-07T21:38:56.220Z,13.84
2023-01-07T21:41:24.730Z,13.87
2023-01-07T21:43:51.550Z,13.88
2023-01-07T21:46:18.379Z,13.89
2023-01-07T21:48:47.073Z,13.89
2023-01-07T21:51:25.888Z,13.89
2023-01-07T21:53:55.935Z,13.91
2023-01-07T21:56:23.860Z,13.92
2023-01-07T21:58:50.558Z,13.95
2023-01-07T22:01:18.057Z,13.95
2023-01-07T22:03:46.795Z,13.94
2023-01-07T22:06:21.933Z,13.96
2023-01-07T22:08:49.314Z,13.96
2023-01-07T22:11:17.675Z,13.97
2023-01-07T22:13:44.451Z,13.97
2023-01-07T22:16:11.258Z,13.98
2023-01-07T22:18:38.088Z,13.99
2023-01-07T22:21:04.863Z,14.00
2023-01-07T22:23:31.770Z,14.02
2023-01-07T22:26:05.621Z,14.02
2023-01-07T22:28:34.032Z,14.03
2023-01-07T22:31:03.490Z,14.05
2023-01-07T22:33:30.256Z,14.06
2023-01-07T22:35:57.092Z,14.07
2023-01-07T22:38:25.930Z,14.07
2023-01-07T22:40:53.439Z,14.09
2023-01-07T22:43:20.957Z,14.08
2023-01-07T22:46:04.525Z,14.06
2023-01-07T22:48:34.713Z,14.05
2023-01-07T22:51:08.289Z,14.07
2023-01-07T22:53:35.389Z,14.09
2023-01-07T22:56:03.017Z,14.09
2023-01-07T22:58:29.884Z,14.10
2023-01-07T23:00:57.179Z,14.09
2023-01-07T23:03:24.460Z,14.10
2023-01-07T23:05:51.581Z,14.12
2023-01-07T23:08:18.493Z,14.12
2023-01-07T23:10:45.327Z,14.12
2023-01-07T23:13:12.624Z,14.14
2023-01-07T23:15:39.840Z,14.14
2023-01-07T23:18:07.885Z,14.15
2023-01-07T23:20:38.076Z,14.13
2023-01-07T23:23:05.628Z,14.13
2023-01-07T23:25:32.512Z,14.11
2023-01-07T23:27:59.289Z,14.12
2023-01-07T23:30:25.986Z,14.13
2023-01-07T23:32:52.806Z,14.13
2023-01-07T23:35:19.560Z,14.14
2023-01-07T23:37:46.598Z,14.15
2023-01-07T23:40:13.589Z,14.17
2023-01-07T23:42:40.400Z,14.18
2023-01-07T23:45:07.661Z,14.19
2023-01-07T23:47:34.434Z,14.20
2023-01-07T23:50:01.080Z,14.19
2023-01-07T23:52:27.884Z,14.20
2023-01-07T23:54:54.596Z,14.21
2023-01-07T23:57:21.410Z,14.22
2023-01-07T23:59:48.823Z,14.22
